sensor_id;sensor_type;location;lat;lon;timestamp;P1;durP1;ratioP1;P2;durP2;ratioP2
72275;SDS011;61204;49.980;8.358;2023-08-30T00:00:56;5.50;;;3.80;;
72275;SDS011;61204;49.980;8.358;2023-08-30T00:03:22;5.38;;;4.35;;
72275;SDS011;61204;49.980;8.358;2023-08-30T00:05:48;5.05;;;3.10;;
72275;SDS011;61204;49.980;8.358;2023-08-30T00:08:13;6.68;;;3.85;;
72275;SDS011;61204;49.980;8.358;2023-08-30T00:10:47;5.38;;;4.05;;
72275;SDS011;61204;49.980;8.358;2023-08-30T00:13:14;4.85;;;3.50;;
72275;SDS011;61204;49.980;8.358;2023-08-30T00:15:40;4.35;;;2.75;;
72275;SDS011;61204;49.980;8.358;2023-08-30T00:18:06;4.10;;;3.70;;
72275;SDS011;61204;49.980;8.358;2023-08-30T00:20:31;5.90;;;4.57;;
72275;SDS011;61204;49.980;8.358;2023-08-30T00:22:57;6.75;;;3.72;;
72275;SDS011;61204;49.980;8.358;2023-08-30T00:25:23;7.38;;;4.75;;
72275;SDS011;61204;49.980;8.358;2023-08-30T00:27:48;5.95;;;3.95;;
72275;SDS011;61204;49.980;8.358;2023-08-30T00:30:14;5.25;;;3.88;;
72275;SDS011;61204;49.980;8.358;2023-08-30T00:32:40;6.88;;;4.45;;
72275;SDS011;61204;49.980;8.358;2023-08-30T00:35:05;6.18;;;4.60;;
72275;SDS011;61204;49.980;8.358;2023-08-30T00:37:32;6.07;;;4.57;;
72275;SDS011;61204;49.980;8.358;2023-08-30T00:40:00;5.65;;;4.30;;
72275;SDS011;61204;49.980;8.358;2023-08-30T00:42:26;4.70;;;3.70;;
72275;SDS011;61204;49.980;8.358;2023-08-30T00:44:52;5.93;;;4.20;;
72275;SDS011;61204;49.980;8.358;2023-08-30T00:47:18;5.25;;;4.05;;
72275;SDS011;61204;49.980;8.358;2023-08-30T00:49:44;5.63;;;4.60;;
72275;SDS011;61204;49.980;8.358;2023-08-30T00:52:09;6.47;;;4.57;;
72275;SDS011;61204;49.980;8.358;2023-08-30T00:54:36;6.40;;;4.95;;
72275;SDS011;61204;49.980;8.358;2023-08-30T00:57:06;5.10;;;3.90;;
72275;SDS011;61204;49.980;8.358;2023-08-30T00:59:34;7.35;;;4.63;;
72275;SDS011;61204;49.980;8.358;2023-08-30T01:02:00;7.07;;;4.07;;
72275;SDS011;61204;49.980;8.358;2023-08-30T01:04:27;6.10;;;4.55;;
72275;SDS011;61204;49.980;8.358;2023-08-30T01:06:55;5.55;;;4.28;;
72275;SDS011;61204;49.980;8.358;2023-08-30T01:09:22;7.05;;;5.38;;
72275;SDS011;61204;49.980;8.358;2023-08-30T01:17:35;6.10;;;4.65;;
72275;SDS011;61204;49.980;8.358;2023-08-30T01:20:09;7.93;;;5.93;;
72275;SDS011;61204;49.980;8.358;2023-08-30T01:28:19;7.78;;;5.82;;
72275;SDS011;61204;49.980;8.358;2023-08-30T01:30:51;7.53;;;5.40;;
72275;SDS011;61204;49.980;8.358;2023-08-30T01:33:22;7.22;;;5.45;;
72275;SDS011;61204;49.980;8.358;2023-08-30T01:35:53;6.63;;;5.35;;
72275;SDS011;61204;49.980;8.358;2023-08-30T01:38:21;7.53;;;5.75;;
72275;SDS011;61204;49.980;8.358;2023-08-30T01:40:51;6.72;;;5.75;;
72275;SDS011;61204;49.980;8.358;2023-08-30T01:43:20;6.50;;;5.82;;
72275;SDS011;61204;49.980;8.358;2023-08-30T01:45:50;6.10;;;5.25;;
72275;SDS011;61204;49.980;8.358;2023-08-30T01:48:16;7.82;;;5.80;;
72275;SDS011;61204;49.980;8.358;2023-08-30T01:50:44;6.72;;;5.03;;
72275;SDS011;61204;49.980;8.358;2023-08-30T01:53:12;7.68;;;5.35;;
72275;SDS011;61204;49.980;8.358;2023-08-30T01:55:39;8.00;;;5.45;;
72275;SDS011;61204;49.980;8.358;2023-08-30T01:58:06;6.05;;;5.10;;
72275;SDS011;61204;49.980;8.358;2023-08-30T02:00:33;5.82;;;5.05;;
72275;SDS011;61204;49.980;8.358;2023-08-30T02:03:06;5.70;;;4.78;;
72275;SDS011;61204;49.980;8.358;2023-08-30T02:08:14;6.72;;;4.97;;
72275;SDS011;61204;49.980;8.358;2023-08-30T02:10:45;6.72;;;6.03;;
72275;SDS011;61204;49.980;8.358;2023-08-30T02:13:32;10.05;;;5.40;;
72275;SDS011;61204;49.980;8.358;2023-08-30T02:16:00;5.40;;;4.43;;
72275;SDS011;61204;49.980;8.358;2023-08-30T02:18:27;7.53;;;5.28;;
72275;SDS011;61204;49.980;8.358;2023-08-30T02:20:53;6.70;;;4.95;;
72275;SDS011;61204;49.980;8.358;2023-08-30T02:23:23;7.65;;;5.68;;
72275;SDS011;61204;49.980;8.358;2023-08-30T02:25:51;6.82;;;5.50;;
72275;SDS011;61204;49.980;8.358;2023-08-30T02:28:19;7.95;;;6.38;;
72275;SDS011;61204;49.980;8.358;2023-08-30T02:30:44;7.47;;;5.47;;
72275;SDS011;61204;49.980;8.358;2023-08-30T02:33:10;6.32;;;5.38;;
72275;SDS011;61204;49.980;8.358;2023-08-30T02:35:35;7.13;;;5.72;;
72275;SDS011;61204;49.980;8.358;2023-08-30T02:38:01;7.28;;;5.78;;
72275;SDS011;61204;49.980;8.358;2023-08-30T02:40:29;7.30;;;6.15;;
72275;SDS011;61204;49.980;8.358;2023-08-30T02:42:56;8.23;;;5.80;;
72275;SDS011;61204;49.980;8.358;2023-08-30T02:45:22;7.95;;;5.82;;
72275;SDS011;61204;49.980;8.358;2023-08-30T02:47:48;8.20;;;5.72;;
72275;SDS011;61204;49.980;8.358;2023-08-30T02:50:15;7.22;;;6.07;;
72275;SDS011;61204;49.980;8.358;2023-08-30T02:52:40;6.75;;;5.72;;
72275;SDS011;61204;49.980;8.358;2023-08-30T02:55:06;6.90;;;5.85;;
72275;SDS011;61204;49.980;8.358;2023-08-30T02:57:32;7.50;;;5.80;;
72275;SDS011;61204;49.980;8.358;2023-08-30T02:59:57;8.55;;;5.47;;
72275;SDS011;61204;49.980;8.358;2023-08-30T03:02:23;8.15;;;5.63;;
72275;SDS011;61204;49.980;8.358;2023-08-30T03:04:48;7.13;;;5.70;;
72275;SDS011;61204;49.980;8.358;2023-08-30T03:07:14;7.55;;;5.75;;
72275;SDS011;61204;49.980;8.358;2023-08-30T03:09:39;7.72;;;5.57;;
72275;SDS011;61204;49.980;8.358;2023-08-30T03:12:05;9.48;;;6.82;;
72275;SDS011;61204;49.980;8.358;2023-08-30T03:14:32;10.35;;;6.30;;
72275;SDS011;61204;49.980;8.358;2023-08-30T03:16:57;7.60;;;5.88;;
72275;SDS011;61204;49.980;8.358;2023-08-30T03:19:23;7.97;;;5.65;;
72275;SDS011;61204;49.980;8.358;2023-08-30T03:21:48;7.35;;;6.03;;
72275;SDS011;61204;49.980;8.358;2023-08-30T03:24:16;9.43;;;6.45;;
72275;SDS011;61204;49.980;8.358;2023-08-30T03:26:42;7.57;;;5.70;;
72275;SDS011;61204;49.980;8.358;2023-08-30T03:29:08;8.43;;;6.22;;
72275;SDS011;61204;49.980;8.358;2023-08-30T03:31:34;8.48;;;6.13;;
72275;SDS011;61204;49.980;8.358;2023-08-30T03:34:00;8.20;;;5.80;;
72275;SDS011;61204;49.980;8.358;2023-08-30T03:36:25;8.25;;;6.03;;
72275;SDS011;61204;49.980;8.358;2023-08-30T03:38:51;7.50;;;6.05;;
72275;SDS011;61204;49.980;8.358;2023-08-30T03:41:17;7.72;;;6.25;;
72275;SDS011;61204;49.980;8.358;2023-08-30T03:43:43;9.13;;;6.50;;
72275;SDS011;61204;49.980;8.358;2023-08-30T03:46:09;8.15;;;6.63;;
72275;SDS011;61204;49.980;8.358;2023-08-30T03:48:37;11.32;;;6.65;;
72275;SDS011;61204;49.980;8.358;2023-08-30T03:51:03;7.60;;;5.38;;
72275;SDS011;61204;49.980;8.358;2023-08-30T03:53:28;8.45;;;5.70;;
72275;SDS011;61204;49.980;8.358;2023-08-30T03:55:55;8.60;;;6.70;;
72275;SDS011;61204;49.980;8.358;2023-08-30T03:58:20;9.45;;;5.75;;
72275;SDS011;61204;49.980;8.358;2023-08-30T04:00:46;9.48;;;6.15;;
72275;SDS011;61204;49.980;8.358;2023-08-30T04:03:13;7.55;;;5.85;;
72275;SDS011;61204;49.980;8.358;2023-08-30T04:05:40;7.40;;;6.07;;
72275;SDS011;61204;49.980;8.358;2023-08-30T04:08:07;11.50;;;6.65;;
72275;SDS011;61204;49.980;8.358;2023-08-30T04:10:34;11.95;;;7.57;;
72275;SDS011;61204;49.980;8.358;2023-08-30T04:13:06;8.75;;;6.20;;
72275;SDS011;61204;49.980;8.358;2023-08-30T04:15:36;7.13;;;5.72;;
72275;SDS011;61204;49.980;8.358;2023-08-30T04:18:04;8.80;;;5.80;;
72275;SDS011;61204;49.980;8.358;2023-08-30T04:20:32;7.68;;;5.15;;
72275;SDS011;61204;49.980;8.358;2023-08-30T04:22:59;6.60;;;5.30;;
72275;SDS011;61204;49.980;8.358;2023-08-30T04:25:29;7.72;;;6.57;;
72275;SDS011;61204;49.980;8.358;2023-08-30T04:27:59;8.77;;;6.25;;
72275;SDS011;61204;49.980;8.358;2023-08-30T04:30:24;7.72;;;5.93;;
72275;SDS011;61204;49.980;8.358;2023-08-30T04:32:50;8.00;;;5.70;;
72275;SDS011;61204;49.980;8.358;2023-08-30T04:35:16;8.07;;;6.10;;
72275;SDS011;61204;49.980;8.358;2023-08-30T04:37:42;8.10;;;5.78;;
72275;SDS011;61204;49.980;8.358;2023-08-30T04:40:08;10.63;;;7.13;;
72275;SDS011;61204;49.980;8.358;2023-08-30T04:42:35;12.50;;;6.47;;
72275;SDS011;61204;49.980;8.358;2023-08-30T04:45:02;10.82;;;6.20;;
72275;SDS011;61204;49.980;8.358;2023-08-30T04:47:32;9.07;;;6.80;;
72275;SDS011;61204;49.980;8.358;2023-08-30T04:49:58;10.55;;;6.40;;
72275;SDS011;61204;49.980;8.358;2023-08-30T04:52:25;8.35;;;6.07;;
72275;SDS011;61204;49.980;8.358;2023-08-30T04:54:51;10.68;;;6.30;;
72275;SDS011;61204;49.980;8.358;2023-08-30T04:57:19;9.52;;;6.47;;
72275;SDS011;61204;49.980;8.358;2023-08-30T04:59:47;9.50;;;6.15;;
72275;SDS011;61204;49.980;8.358;2023-08-30T05:02:15;9.68;;;6.50;;
72275;SDS011;61204;49.980;8.358;2023-08-30T05:04:41;9.27;;;6.75;;
72275;SDS011;61204;49.980;8.358;2023-08-30T05:07:07;9.68;;;6.95;;
72275;SDS011;61204;49.980;8.358;2023-08-30T05:09:32;10.10;;;6.90;;
72275;SDS011;61204;49.980;8.358;2023-08-30T05:11:59;10.20;;;7.25;;
72275;SDS011;61204;49.980;8.358;2023-08-30T05:14:25;9.43;;;6.95;;
72275;SDS011;61204;49.980;8.358;2023-08-30T05:16:51;11.65;;;7.80;;
72275;SDS011;61204;49.980;8.358;2023-08-30T05:19:16;11.13;;;6.65;;
72275;SDS011;61204;49.980;8.358;2023-08-30T05:21:42;8.60;;;6.80;;
72275;SDS011;61204;49.980;8.358;2023-08-30T05:24:09;10.10;;;7.15;;
72275;SDS011;61204;49.980;8.358;2023-08-30T05:26:35;11.32;;;8.25;;
72275;SDS011;61204;49.980;8.358;2023-08-30T05:29:01;10.45;;;7.03;;
72275;SDS011;61204;49.980;8.358;2023-08-30T05:31:29;9.95;;;6.85;;
72275;SDS011;61204;49.980;8.358;2023-08-30T05:33:54;11.88;;;6.70;;
72275;SDS011;61204;49.980;8.358;2023-08-30T05:36:20;11.13;;;6.97;;
72275;SDS011;61204;49.980;8.358;2023-08-30T05:38:49;9.77;;;7.28;;
72275;SDS011;61204;49.980;8.358;2023-08-30T05:41:16;8.93;;;6.22;;
72275;SDS011;61204;49.980;8.358;2023-08-30T05:43:42;6.40;;;5.78;;
72275;SDS011;61204;49.980;8.358;2023-08-30T05:46:08;7.95;;;5.85;;
72275;SDS011;61204;49.980;8.358;2023-08-30T05:48:41;8.60;;;5.82;;
72275;SDS011;61204;49.980;8.358;2023-08-30T05:51:07;7.88;;;5.68;;
72275;SDS011;61204;49.980;8.358;2023-08-30T05:53:32;13.38;;;5.95;;
72275;SDS011;61204;49.980;8.358;2023-08-30T05:55:58;8.18;;;5.80;;
72275;SDS011;61204;49.980;8.358;2023-08-30T05:58:24;8.50;;;5.75;;
72275;SDS011;61204;49.980;8.358;2023-08-30T06:00:49;7.75;;;5.30;;
72275;SDS011;61204;49.980;8.358;2023-08-30T06:03:15;6.28;;;4.43;;
72275;SDS011;61204;49.980;8.358;2023-08-30T06:05:41;9.40;;;5.28;;
72275;SDS011;61204;49.980;8.358;2023-08-30T06:08:07;8.07;;;5.35;;
72275;SDS011;61204;49.980;8.358;2023-08-30T06:10:34;7.57;;;5.13;;
72275;SDS011;61204;49.980;8.358;2023-08-30T06:13:01;10.18;;;6.10;;
72275;SDS011;61204;49.980;8.358;2023-08-30T06:15:29;9.93;;;4.72;;
72275;SDS011;61204;49.980;8.358;2023-08-30T06:17:55;8.20;;;5.13;;
72275;SDS011;61204;49.980;8.358;2023-08-30T06:20:20;8.25;;;5.28;;
72275;SDS011;61204;49.980;8.358;2023-08-30T06:22:46;6.13;;;4.68;;
72275;SDS011;61204;49.980;8.358;2023-08-30T06:25:12;9.68;;;4.28;;
72275;SDS011;61204;49.980;8.358;2023-08-30T06:27:41;5.88;;;4.63;;
72275;SDS011;61204;49.980;8.358;2023-08-30T06:30:26;5.38;;;3.97;;
72275;SDS011;61204;49.980;8.358;2023-08-30T06:32:57;4.93;;;3.97;;
72275;SDS011;61204;49.980;8.358;2023-08-30T06:35:23;5.57;;;3.45;;
72275;SDS011;61204;49.980;8.358;2023-08-30T06:37:49;5.57;;;3.95;;
72275;SDS011;61204;49.980;8.358;2023-08-30T06:40:15;5.05;;;4.18;;
72275;SDS011;61204;49.980;8.358;2023-08-30T06:42:41;4.32;;;3.55;;
72275;SDS011;61204;49.980;8.358;2023-08-30T06:45:07;3.92;;;3.20;;
72275;SDS011;61204;49.980;8.358;2023-08-30T06:47:33;5.32;;;3.45;;
72275;SDS011;61204;49.980;8.358;2023-08-30T06:49:59;5.05;;;3.50;;
72275;SDS011;61204;49.980;8.358;2023-08-30T06:52:26;3.72;;;3.30;;
72275;SDS011;61204;49.980;8.358;2023-08-30T06:54:52;5.07;;;3.65;;
72275;SDS011;61204;49.980;8.358;2023-08-30T06:57:17;3.90;;;3.30;;
72275;SDS011;61204;49.980;8.358;2023-08-30T06:59:43;3.63;;;3.00;;
72275;SDS011;61204;49.980;8.358;2023-08-30T07:02:08;4.60;;;3.33;;
72275;SDS011;61204;49.980;8.358;2023-08-30T07:04:34;4.47;;;3.53;;
72275;SDS011;61204;49.980;8.358;2023-08-30T07:07:02;6.07;;;3.80;;
72275;SDS011;61204;49.980;8.358;2023-08-30T07:09:27;6.18;;;3.30;;
72275;SDS011;61204;49.980;8.358;2023-08-30T07:11:54;4.38;;;3.30;;
72275;SDS011;61204;49.980;8.358;2023-08-30T07:14:23;4.00;;;3.33;;
72275;SDS011;61204;49.980;8.358;2023-08-30T07:16:49;4.55;;;3.45;;
72275;SDS011;61204;49.980;8.358;2023-08-30T07:19:15;4.95;;;3.20;;
72275;SDS011;61204;49.980;8.358;2023-08-30T07:21:42;4.90;;;3.65;;
72275;SDS011;61204;49.980;8.358;2023-08-30T07:24:08;5.68;;;3.80;;
72275;SDS011;61204;49.980;8.358;2023-08-30T07:26:36;5.38;;;3.90;;
72275;SDS011;61204;49.980;8.358;2023-08-30T07:29:02;5.13;;;3.42;;
72275;SDS011;61204;49.980;8.358;2023-08-30T07:31:30;4.63;;;3.42;;
72275;SDS011;61204;49.980;8.358;2023-08-30T07:33:57;4.63;;;3.40;;
72275;SDS011;61204;49.980;8.358;2023-08-30T07:36:24;6.90;;;2.92;;
72275;SDS011;61204;49.980;8.358;2023-08-30T07:38:57;5.15;;;3.60;;
72275;SDS011;61204;49.980;8.358;2023-08-30T07:41:23;5.10;;;4.10;;
72275;SDS011;61204;49.980;8.358;2023-08-30T07:43:48;4.95;;;3.60;;
72275;SDS011;61204;49.980;8.358;2023-08-30T07:46:14;4.45;;;3.45;;
72275;SDS011;61204;49.980;8.358;2023-08-30T07:48:39;4.38;;;3.45;;
72275;SDS011;61204;49.980;8.358;2023-08-30T07:51:05;5.47;;;3.70;;
72275;SDS011;61204;49.980;8.358;2023-08-30T07:53:31;5.32;;;3.50;;
72275;SDS011;61204;49.980;8.358;2023-08-30T07:55:56;6.22;;;4.13;;
72275;SDS011;61204;49.980;8.358;2023-08-30T07:58:22;7.85;;;3.95;;
72275;SDS011;61204;49.980;8.358;2023-08-30T08:00:50;5.20;;;3.65;;
72275;SDS011;61204;49.980;8.358;2023-08-30T08:03:17;4.25;;;3.78;;
72275;SDS011;61204;49.980;8.358;2023-08-30T08:05:44;5.18;;;3.85;;
72275;SDS011;61204;49.980;8.358;2023-08-30T08:08:13;4.88;;;3.88;;
72275;SDS011;61204;49.980;8.358;2023-08-30T08:10:42;5.45;;;3.53;;
72275;SDS011;61204;49.980;8.358;2023-08-30T08:13:08;4.90;;;3.83;;
72275;SDS011;61204;49.980;8.358;2023-08-30T08:15:34;6.15;;;4.65;;
72275;SDS011;61204;49.980;8.358;2023-08-30T08:18:02;5.35;;;4.03;;
72275;SDS011;61204;49.980;8.358;2023-08-30T08:20:31;5.15;;;4.00;;
72275;SDS011;61204;49.980;8.358;2023-08-30T08:22:58;4.43;;;3.55;;
72275;SDS011;61204;49.980;8.358;2023-08-30T08:25:26;5.35;;;3.40;;
72275;SDS011;61204;49.980;8.358;2023-08-30T08:27:51;5.25;;;3.33;;
72275;SDS011;61204;49.980;8.358;2023-08-30T08:30:17;6.40;;;4.65;;
72275;SDS011;61204;49.980;8.358;2023-08-30T08:32:45;4.70;;;3.80;;
72275;SDS011;61204;49.980;8.358;2023-08-30T08:35:12;4.78;;;3.20;;
72275;SDS011;61204;49.980;8.358;2023-08-30T08:37:38;4.80;;;3.85;;
72275;SDS011;61204;49.980;8.358;2023-08-30T08:40:04;4.60;;;3.60;;
72275;SDS011;61204;49.980;8.358;2023-08-30T08:42:33;5.20;;;3.80;;
72275;SDS011;61204;49.980;8.358;2023-08-30T08:45:02;6.25;;;4.30;;
72275;SDS011;61204;49.980;8.358;2023-08-30T08:47:32;5.15;;;4.05;;
72275;SDS011;61204;49.980;8.358;2023-08-30T08:49:58;5.28;;;3.78;;
72275;SDS011;61204;49.980;8.358;2023-08-30T08:52:25;6.30;;;3.45;;
72275;SDS011;61204;49.980;8.358;2023-08-30T08:54:51;4.75;;;3.78;;
72275;SDS011;61204;49.980;8.358;2023-08-30T08:57:19;4.50;;;3.72;;
72275;SDS011;61204;49.980;8.358;2023-08-30T08:59:49;5.38;;;3.90;;
72275;SDS011;61204;49.980;8.358;2023-08-30T09:02:15;4.75;;;3.67;;
72275;SDS011;61204;49.980;8.358;2023-08-30T09:04:41;4.90;;;3.35;;
72275;SDS011;61204;49.980;8.358;2023-08-30T09:07:07;4.93;;;3.50;;
72275;SDS011;61204;49.980;8.358;2023-08-30T09:09:33;5.40;;;3.35;;
72275;SDS011;61204;49.980;8.358;2023-08-30T09:11:59;5.20;;;3.88;;
72275;SDS011;61204;49.980;8.358;2023-08-30T09:14:25;6.28;;;4.35;;
72275;SDS011;61204;49.980;8.358;2023-08-30T09:16:55;4.65;;;3.72;;
72275;SDS011;61204;49.980;8.358;2023-08-30T09:19:26;4.93;;;4.10;;
72275;SDS011;61204;49.980;8.358;2023-08-30T09:21:52;5.88;;;4.15;;
72275;SDS011;61204;49.980;8.358;2023-08-30T09:24:20;5.82;;;3.67;;
72275;SDS011;61204;49.980;8.358;2023-08-30T09:26:49;4.85;;;3.85;;
72275;SDS011;61204;49.980;8.358;2023-08-30T09:29:19;4.65;;;3.63;;
72275;SDS011;61204;49.980;8.358;2023-08-30T09:31:51;4.22;;;3.53;;
72275;SDS011;61204;49.980;8.358;2023-08-30T09:34:23;5.53;;;3.47;;
72275;SDS011;61204;49.980;8.358;2023-08-30T09:36:52;4.47;;;3.10;;
72275;SDS011;61204;49.980;8.358;2023-08-30T09:39:19;4.68;;;3.80;;
72275;SDS011;61204;49.980;8.358;2023-08-30T09:41:49;5.15;;;4.00;;
72275;SDS011;61204;49.980;8.358;2023-08-30T09:44:19;4.85;;;3.60;;
72275;SDS011;61204;49.980;8.358;2023-08-30T09:46:49;4.43;;;3.50;;
72275;SDS011;61204;49.980;8.358;2023-08-30T09:49:22;5.72;;;4.13;;
72275;SDS011;61204;49.980;8.358;2023-08-30T09:51:51;5.00;;;3.83;;
72275;SDS011;61204;49.980;8.358;2023-08-30T09:54:22;5.07;;;3.50;;
72275;SDS011;61204;49.980;8.358;2023-08-30T09:56:50;6.03;;;3.22;;
72275;SDS011;61204;49.980;8.358;2023-08-30T09:59:18;4.18;;;3.45;;
72275;SDS011;61204;49.980;8.358;2023-08-30T10:01:45;3.88;;;3.35;;
72275;SDS011;61204;49.980;8.358;2023-08-30T10:04:15;4.22;;;2.90;;
72275;SDS011;61204;49.980;8.358;2023-08-30T10:06:43;3.45;;;2.60;;
72275;SDS011;61204;49.980;8.358;2023-08-30T10:09:12;3.33;;;2.55;;
72275;SDS011;61204;49.980;8.358;2023-08-30T10:11:40;3.97;;;3.20;;
72275;SDS011;61204;49.980;8.358;2023-08-30T10:14:05;3.85;;;3.15;;
72275;SDS011;61204;49.980;8.358;2023-08-30T10:16:45;5.55;;;3.28;;
72275;SDS011;61204;49.980;8.358;2023-08-30T10:19:16;4.13;;;2.75;;
72275;SDS011;61204;49.980;8.358;2023-08-30T10:21:53;4.38;;;2.72;;
72275;SDS011;61204;49.980;8.358;2023-08-30T10:24:30;3.30;;;2.70;;
72275;SDS011;61204;49.980;8.358;2023-08-30T10:27:15;3.60;;;2.90;;
72275;SDS011;61204;49.980;8.358;2023-08-30T10:29:42;4.68;;;2.83;;
72275;SDS011;61204;49.980;8.358;2023-08-30T10:32:11;3.60;;;2.75;;
72275;SDS011;61204;49.980;8.358;2023-08-30T10:34:39;3.70;;;2.13;;
72275;SDS011;61204;49.980;8.358;2023-08-30T10:37:09;4.40;;;2.85;;
72275;SDS011;61204;49.980;8.358;2023-08-30T10:39:37;2.95;;;2.42;;
72275;SDS011;61204;49.980;8.358;2023-08-30T10:42:10;3.58;;;2.28;;
72275;SDS011;61204;49.980;8.358;2023-08-30T10:44:52;4.47;;;2.42;;
72275;SDS011;61204;49.980;8.358;2023-08-30T10:47:25;3.38;;;2.40;;
72275;SDS011;61204;49.980;8.358;2023-08-30T10:50:00;3.85;;;2.47;;
72275;SDS011;61204;49.980;8.358;2023-08-30T10:52:31;3.80;;;2.78;;
72275;SDS011;61204;49.980;8.358;2023-08-30T10:58:01;2.13;;;1.33;;
72275;SDS011;61204;49.980;8.358;2023-08-30T11:00:31;3.08;;;1.90;;
72275;SDS011;61204;49.980;8.358;2023-08-30T11:02:57;3.25;;;1.90;;
72275;SDS011;61204;49.980;8.358;2023-08-30T11:05:23;3.28;;;2.42;;
72275;SDS011;61204;49.980;8.358;2023-08-30T11:07:52;2.63;;;1.38;;
72275;SDS011;61204;49.980;8.358;2023-08-30T11:10:19;2.25;;;1.60;;
72275;SDS011;61204;49.980;8.358;2023-08-30T11:12:46;2.88;;;2.10;;
72275;SDS011;61204;49.980;8.358;2023-08-30T11:15:14;2.67;;;1.58;;
72275;SDS011;61204;49.980;8.358;2023-08-30T11:17:41;3.25;;;2.17;;
72275;SDS011;61204;49.980;8.358;2023-08-30T11:20:09;2.72;;;1.67;;
72275;SDS011;61204;49.980;8.358;2023-08-30T11:22:50;2.78;;;2.13;;
72275;SDS011;61204;49.980;8.358;2023-08-30T11:25:18;3.50;;;2.10;;
72275;SDS011;61204;49.980;8.358;2023-08-30T11:27:44;2.97;;;2.15;;
72275;SDS011;61204;49.980;8.358;2023-08-30T11:30:14;3.08;;;2.13;;
72275;SDS011;61204;49.980;8.358;2023-08-30T11:32:44;3.70;;;2.85;;
72275;SDS011;61204;49.980;8.358;2023-08-30T11:35:12;3.72;;;2.88;;
72275;SDS011;61204;49.980;8.358;2023-08-30T11:37:40;4.20;;;2.50;;
72275;SDS011;61204;49.980;8.358;2023-08-30T11:40:08;4.00;;;2.75;;
72275;SDS011;61204;49.980;8.358;2023-08-30T11:42:37;4.10;;;2.85;;
72275;SDS011;61204;49.980;8.358;2023-08-30T11:45:06;4.13;;;2.60;;
72275;SDS011;61204;49.980;8.358;2023-08-30T11:47:36;3.65;;;2.35;;
72275;SDS011;61204;49.980;8.358;2023-08-30T11:50:02;4.22;;;3.00;;
72275;SDS011;61204;49.980;8.358;2023-08-30T11:52:29;2.50;;;1.70;;
72275;SDS011;61204;49.980;8.358;2023-08-30T11:55:01;3.28;;;2.15;;
72275;SDS011;61204;49.980;8.358;2023-08-30T11:57:27;3.28;;;2.42;;
72275;SDS011;61204;49.980;8.358;2023-08-30T11:59:53;3.13;;;2.05;;
72275;SDS011;61204;49.980;8.358;2023-08-30T12:02:18;3.25;;;1.98;;
72275;SDS011;61204;49.980;8.358;2023-08-30T12:04:46;2.88;;;1.88;;
72275;SDS011;61204;49.980;8.358;2023-08-30T12:07:22;3.17;;;1.77;;
72275;SDS011;61204;49.980;8.358;2023-08-30T12:09:49;3.67;;;1.80;;
72275;SDS011;61204;49.980;8.358;2023-08-30T12:12:15;2.22;;;1.60;;
72275;SDS011;61204;49.980;8.358;2023-08-30T12:14:41;1.75;;;1.33;;
72275;SDS011;61204;49.980;8.358;2023-08-30T12:17:08;3.25;;;1.73;;
72275;SDS011;61204;49.980;8.358;2023-08-30T12:19:36;5.20;;;1.60;;
72275;SDS011;61204;49.980;8.358;2023-08-30T12:22:05;2.45;;;1.67;;
72275;SDS011;61204;49.980;8.358;2023-08-30T12:24:42;1.85;;;1.38;;
72275;SDS011;61204;49.980;8.358;2023-08-30T12:27:09;2.53;;;1.60;;
72275;SDS011;61204;49.980;8.358;2023-08-30T12:29:34;2.42;;;1.60;;
72275;SDS011;61204;49.980;8.358;2023-08-30T12:32:00;2.60;;;1.70;;
72275;SDS011;61204;49.980;8.358;2023-08-30T12:34:26;2.30;;;1.48;;
72275;SDS011;61204;49.980;8.358;2023-08-30T12:36:51;2.58;;;1.75;;
72275;SDS011;61204;49.980;8.358;2023-08-30T12:39:20;2.30;;;1.55;;
72275;SDS011;61204;49.980;8.358;2023-08-30T12:41:45;2.88;;;1.58;;
72275;SDS011;61204;49.980;8.358;2023-08-30T12:44:12;2.78;;;1.98;;
72275;SDS011;61204;49.980;8.358;2023-08-30T12:46:38;2.60;;;1.75;;
72275;SDS011;61204;49.980;8.358;2023-08-30T12:49:03;3.55;;;2.05;;
72275;SDS011;61204;49.980;8.358;2023-08-30T12:51:29;2.95;;;2.03;;
72275;SDS011;61204;49.980;8.358;2023-08-30T12:53:55;2.90;;;2.33;;
72275;SDS011;61204;49.980;8.358;2023-08-30T12:56:21;3.08;;;2.35;;
72275;SDS011;61204;49.980;8.358;2023-08-30T12:58:47;3.58;;;2.42;;
72275;SDS011;61204;49.980;8.358;2023-08-30T13:01:12;2.85;;;2.20;;
72275;SDS011;61204;49.980;8.358;2023-08-30T13:03:38;2.63;;;2.08;;
72275;SDS011;61204;49.980;8.358;2023-08-30T13:06:05;3.45;;;2.15;;
72275;SDS011;61204;49.980;8.358;2023-08-30T13:08:31;3.50;;;2.15;;
72275;SDS011;61204;49.980;8.358;2023-08-30T13:10:59;4.22;;;2.20;;
72275;SDS011;61204;49.980;8.358;2023-08-30T13:13:25;3.05;;;1.90;;
72275;SDS011;61204;49.980;8.358;2023-08-30T13:15:51;3.42;;;2.20;;
72275;SDS011;61204;49.980;8.358;2023-08-30T13:18:17;2.90;;;1.75;;
72275;SDS011;61204;49.980;8.358;2023-08-30T13:20:42;2.97;;;2.17;;
72275;SDS011;61204;49.980;8.358;2023-08-30T13:23:08;5.35;;;2.92;;
72275;SDS011;61204;49.980;8.358;2023-08-30T13:25:37;3.40;;;2.15;;
72275;SDS011;61204;49.980;8.358;2023-08-30T13:28:06;3.90;;;1.85;;
72275;SDS011;61204;49.980;8.358;2023-08-30T13:30:33;3.15;;;2.35;;
72275;SDS011;61204;49.980;8.358;2023-08-30T13:32:59;4.13;;;2.63;;
72275;SDS011;61204;49.980;8.358;2023-08-30T13:35:25;3.92;;;2.20;;
72275;SDS011;61204;49.980;8.358;2023-08-30T13:37:51;3.63;;;1.88;;
72275;SDS011;61204;49.980;8.358;2023-08-30T13:40:16;3.67;;;2.13;;
72275;SDS011;61204;49.980;8.358;2023-08-30T13:42:44;4.82;;;2.50;;
72275;SDS011;61204;49.980;8.358;2023-08-30T13:45:10;3.38;;;2.08;;
72275;SDS011;61204;49.980;8.358;2023-08-30T13:47:38;3.35;;;2.30;;
72275;SDS011;61204;49.980;8.358;2023-08-30T13:50:04;3.00;;;2.35;;
72275;SDS011;61204;49.980;8.358;2023-08-30T13:52:31;7.53;;;3.53;;
72275;SDS011;61204;49.980;8.358;2023-08-30T13:54:58;2.95;;;2.00;;
72275;SDS011;61204;49.980;8.358;2023-08-30T13:57:23;3.20;;;2.10;;
72275;SDS011;61204;49.980;8.358;2023-08-30T13:59:49;3.45;;;1.92;;
72275;SDS011;61204;49.980;8.358;2023-08-30T14:02:14;3.22;;;2.25;;
72275;SDS011;61204;49.980;8.358;2023-08-30T14:04:40;2.67;;;2.00;;
72275;SDS011;61204;49.980;8.358;2023-08-30T14:07:07;3.88;;;1.90;;
72275;SDS011;61204;49.980;8.358;2023-08-30T14:09:34;3.13;;;2.17;;
72275;SDS011;61204;49.980;8.358;2023-08-30T14:12:00;2.72;;;1.70;;
72275;SDS011;61204;49.980;8.358;2023-08-30T14:14:25;2.42;;;1.52;;
72275;SDS011;61204;49.980;8.358;2023-08-30T14:16:51;4.30;;;2.08;;
72275;SDS011;61204;49.980;8.358;2023-08-30T14:19:19;2.63;;;1.83;;
72275;SDS011;61204;49.980;8.358;2023-08-30T14:21:44;2.92;;;1.88;;
72275;SDS011;61204;49.980;8.358;2023-08-30T14:24:10;4.53;;;1.80;;
72275;SDS011;61204;49.980;8.358;2023-08-30T14:26:36;2.30;;;1.80;;
72275;SDS011;61204;49.980;8.358;2023-08-30T14:29:04;6.05;;;1.73;;
72275;SDS011;61204;49.980;8.358;2023-08-30T14:31:30;2.88;;;1.60;;
72275;SDS011;61204;49.980;8.358;2023-08-30T14:33:56;3.70;;;1.80;;
72275;SDS011;61204;49.980;8.358;2023-08-30T14:36:27;3.78;;;1.95;;
72275;SDS011;61204;49.980;8.358;2023-08-30T14:38:53;2.30;;;1.52;;
72275;SDS011;61204;49.980;8.358;2023-08-30T14:41:18;3.25;;;1.55;;
72275;SDS011;61204;49.980;8.358;2023-08-30T14:43:44;2.50;;;1.48;;
72275;SDS011;61204;49.980;8.358;2023-08-30T14:46:10;2.65;;;1.40;;
72275;SDS011;61204;49.980;8.358;2023-08-30T14:48:35;3.00;;;1.60;;
72275;SDS011;61204;49.980;8.358;2023-08-30T14:51:02;2.30;;;1.58;;
72275;SDS011;61204;49.980;8.358;2023-08-30T14:53:32;4.00;;;1.85;;
72275;SDS011;61204;49.980;8.358;2023-08-30T14:55:57;2.10;;;1.50;;
72275;SDS011;61204;49.980;8.358;2023-08-30T14:58:23;2.13;;;1.60;;
72275;SDS011;61204;49.980;8.358;2023-08-30T15:00:49;3.40;;;1.63;;
72275;SDS011;61204;49.980;8.358;2023-08-30T15:03:17;3.05;;;1.45;;
72275;SDS011;61204;49.980;8.358;2023-08-30T15:05:43;4.78;;;2.28;;